Pont Aven — FNPN — position and weather

sailwx.info

Track history (hours):
 
Tides and Currents Weather Stations Pressure Air Temp Water Temp Dewpoint Dewpoint Depression Visibility Wind Speed Wind Dir Waves Ship Positions

Pont Aven

Last reported at 2017-Jun-23 05:39 UTC. Time now 2017-Jun-23 18:55 UTC.
Position N 48°43' W 003°58'.

Length 185 m; beam 31 m.

Type: Passenger vessel. MMSI: 228183600.

Date/timePositionNaut miles runAvg speedWind from/ knotsBaromVisibWave heightAir tempDewpointWater temp
2017-Jun-23 05:39N 48°43' W 003°58'1 7.4
2017-Jun-23 05:30N 48°44' W 003°57'1415.8
2017-Jun-23 04:36N 48°58' W 003°60'217.2
2017-Jun-23 04:31N 48°60' W 003°60'4517.4
2017-Jun-23 01:56N 49°44' W 004°12'816.9
2017-Jun-23 01:26N 49°52' W 004°14'716.9
2017-Jun-23 01:00N 49°60' W 004°16'817.0
2017-Jun-23 00:30N 50°08' W 004°17'917.1
2017-Jun-23 00:00N 50°17' W 004°17'1 1.3
2017-Jun-22 23:30N 50°17' W 004°17'0 0.8
2017-Jun-22 23:00N 50°17' W 004°18'0 0.5
2017-Jun-22 22:30N 50°17' W 004°18'0 0.4
2017-Jun-22 22:00N 50°16' W 004°18'0 0.5
2017-Jun-22 21:30N 50°16' W 004°18'0 0.6
2017-Jun-22 21:00N 50°16' W 004°19'6 7.1
2017-Jun-22 20:09N 50°19' W 004°10'110.1
2017-Jun-22 20:01N 50°20' W 004°09'1 2.9
2017-Jun-22 19:30N 50°22' W 004°09'0 0.0
2017-Jun-22 19:01N 50°22' W 004°09'0 0.0
2017-Jun-22 18:31N 50°22' W 004°09'0 0.0
2017-Jun-22 18:01N 50°22' W 004°09'0 0.0
2017-Jun-22 17:31N 50°22' W 004°09'0 0.0
2017-Jun-22 17:01N 50°22' W 004°09'0 0.0
2017-Jun-22 16:31N 50°22' W 004°09'0 0.0
2017-Jun-22 16:00N 50°22' W 004°09'0 0.0
2017-Jun-22 15:30N 50°22' W 004°09'0 0.4
2017-Jun-22 15:00N 50°22' W 004°09'1313.4
2017-Jun-22 14:01N 50°09' W 004°15'4722.1
2017-Jun-22 11:53N 49°23' W 004°31'1422.2
2017-Jun-22 11:14N 49°10' W 004°41'922.2
2017-Jun-22 10:50N 49°01' W 004°45'922.1
2017-Jun-22 10:25N 48°53' W 004°49'922.3
2017-Jun-22 09:59N 48°44' W 004°53'1122.4
2017-Jun-22 09:31N 48°33' W 004°57'917.4
2017-Jun-22 09:01N 48°26' W 005°03'1121.8
2017-Jun-22 08:30N 48°15' W 005°08'1122.6
2017-Jun-22 08:01N 48°04' W 005°10'1122.3
2017-Jun-22 07:30N 47°53' W 005°06'1122.7
2017-Jun-22 07:01N 47°42' W 005°03'1223.2
2017-Jun-22 06:30N 47°31' W 004°59'1122.9
2017-Jun-22 06:01N 47°20' W 004°55'1223.1
2017-Jun-22 05:31N 47°08' W 004°52'1322.6
2017-Jun-22 04:57N 46°56' W 004°50'1022.3
2017-Jun-22 04:30N 46°46' W 004°46'1122.7
2017-Jun-22 04:00N 46°35' W 004°42'1223.1
2017-Jun-22 03:29N 46°23' W 004°38'1122.7
2017-Jun-22 02:59N 46°12' W 004°35'1123.2
2017-Jun-22 02:30N 46°01' W 004°32'1223.1
2017-Jun-22 02:01N 45°50' W 004°28'1223.5
2017-Jun-22 01:30N 45°39' W 004°25'1223.8
2017-Jun-22 01:00N 45°27' W 004°21'1223.6
2017-Jun-22 00:31N 45°15' W 004°18'1223.7
2017-Jun-22 00:01N 45°04' W 004°14'1223.7
2017-Jun-21 23:30N 44°52' W 004°11'1223.6
2017-Jun-21 23:01N 44°41' W 004°08'1223.3
2017-Jun-21 22:31N 44°29' W 004°04'1223.0
2017-Jun-21 22:00N 44°18' W 004°01'1223.2
2017-Jun-21 21:30N 44°06' W 003°58'16 2.0
2017-Jun-21 13:22N 44°22' W 004°01'823.2
2017-Jun-21 13:00N 44°30' W 004°04'1323.4
2017-Jun-21 12:26N 44°43' W 004°08'1023.5
2017-Jun-21 12:00N 44°53' W 004°11'1223.2
2017-Jun-21 11:31N 45°05' W 004°14'1223.3
2017-Jun-21 11:00N 45°16' W 004°17'1223.3
2017-Jun-21 10:29N 45°28' W 004°21'2723.5
2017-Jun-21 09:20N 45°55' W 004°28'823.6
2017-Jun-21 09:00N 46°02' W 004°30'2523.9
2017-Jun-21 07:57N 46°27' W 004°37'1123.7
2017-Jun-21 07:30N 46°37' W 004°41'1523.3
2017-Jun-21 06:52N 46°52' W 004°46'823.7
2017-Jun-21 06:30N 47°00' W 004°48'1223.6
2017-Jun-21 06:01N 47°12' W 004°51'1224.1
2017-Jun-21 05:30N 47°23' W 004°54'1224.0
2017-Jun-21 05:00N 47°35' W 004°59'1224.2
2017-Jun-21 04:31N 47°47' W 005°04'1224.6
2017-Jun-21 04:01N 47°58' W 005°09'1224.2
2017-Jun-21 03:30N 48°11' W 005°09'1223.9
2017-Jun-21 03:01N 48°22' W 005°06'917.3
2017-Jun-21 02:31N 48°29' W 004°58'1122.9
2017-Jun-21 02:01N 48°39' W 004°48'1121.3
2017-Jun-21 01:31N 48°45' W 004°36'1122.0
2017-Jun-21 01:00N 48°54' W 004°25'1122.3
2017-Jun-21 00:31N 49°02' W 004°14'1122.8
2017-Jun-21 00:00N 49°10' W 004°02'1823.5
2017-Jun-20 23:14N 49°23' W 003°42'524.1
2017-Jun-20 23:00N 49°27' W 003°36'1224.5
2017-Jun-20 22:31N 49°35' W 003°22'1224.6
2017-Jun-20 22:01N 49°45' W 003°10'1224.3
2017-Jun-20 21:30N 49°54' W 002°58'1224.1
2017-Jun-20 21:01N 50°00' W 002°42'1325.0
2017-Jun-20 20:31N 50°05' W 002°24'1224.5
2017-Jun-20 20:01N 50°11' W 002°07'1223.9
2017-Jun-20 19:31N 50°17' W 001°51'1823.0
2017-Jun-20 18:44N 50°26' W 001°27'522.3
2017-Jun-20 18:30N 50°28' W 001°20'1121.7
2017-Jun-20 18:00N 50°35' W 001°06'918.3
2017-Jun-20 17:30N 50°43' W 000°59'714.4
2017-Jun-20 17:00N 50°48' W 001°07'1 2.1
2017-Jun-20 16:30N 50°49' W 001°06'0 0.0
2017-Jun-20 16:00N 50°49' W 001°06'0 0.0
2017-Jun-20 15:30N 50°49' W 001°06'0 0.0
2017-Jun-20 15:00N 50°49' W 001°06'0 0.0
2017-Jun-20 14:30N 50°49' W 001°06'1 0.9
2017-Jun-20 13:30N 50°48' W 001°07'611.9
2017-Jun-20 13:00N 50°43' W 001°01'815.6
2017-Jun-20 12:30N 50°36' W 001°03'1021.1
2017-Jun-20 12:00N 50°29' W 001°16'1121.2
2017-Jun-20 11:30N 50°22' W 001°28'1121.1
2017-Jun-20 11:00N 50°14' W 001°41'1020.6
2017-Jun-20 10:30N 50°08' W 001°53'1020.5
2017-Jun-20 10:00N 50°03' W 002°07'1120.4
2017-Jun-20 09:28N 49°57' W 002°22'1321.0
2017-Jun-20 08:51N 49°53' W 002°40'821.5
2017-Jun-20 08:30N 49°50' W 002°52'1121.6
2017-Jun-20 07:59N 49°43' W 003°05'1121.9
2017-Jun-20 07:30N 49°35' W 003°15'1122.0
2017-Jun-20 07:00N 49°28' W 003°28'3722.1
2017-Jun-20 05:20N 49°02' W 004°09'822.3
2017-Jun-20 04:59N 48°57' W 004°18'1122.2
2017-Jun-20 04:30N 48°50' W 004°30'1122.2
2017-Jun-20 04:00N 48°42' W 004°42'1122.2
2017-Jun-20 03:30N 48°34' W 004°53'1019.3
2017-Jun-20 03:00N 48°26' W 005°02'1019.9
2017-Jun-20 02:30N 48°17' W 005°08'1222.8
2017-Jun-20 02:00N 48°06' W 005°10'1122.5
2017-Jun-20 01:30N 47°55' W 005°09'1122.8
2017-Jun-20 01:00N 47°43' W 005°06'1223.3
2017-Jun-20 00:30N 47°32' W 005°02'2023.1
2017-Jun-19 23:40N 47°13' W 004°56'523.0
2017-Jun-19 23:26N 47°08' W 004°54'1223.3
2017-Jun-19 22:54N 46°56' W 004°49'922.9
2017-Jun-19 22:31N 46°47' W 004°46'1223.1
2017-Jun-19 22:00N 46°36' W 004°43'1223.1
2017-Jun-19 21:31N 46°25' W 004°39'1223.8
2017-Jun-19 21:01N 46°13' W 004°35'1223.3
2017-Jun-19 20:31N 46°01' W 004°32'1223.3
2017-Jun-19 20:01N 45°50' W 004°29'12010.5
2017-Jun-19 08:31N 43°53' W 003°52'022.9
2017-Jun-19 08:30N 43°53' W 003°52'1523.4
2017-Jun-19 07:52N 44°08' W 003°56'923.5
2017-Jun-19 07:30N 44°16' W 003°59'1123.2
2017-Jun-19 07:00N 44°27' W 004°02'1323.2
2017-Jun-19 06:27N 44°40' W 004°06'10923.3
2017-Jun-19 01:46N 46°26' W 004°42'723.4
2017-Jun-19 01:28N 46°33' W 004°43'1424.0
2017-Jun-19 00:53N 46°47' W 004°45'924.3
2017-Jun-19 00:31N 46°56' W 004°47'1424.0
2017-Jun-18 23:56N 47°10' W 004°51'2924.0
2017-Jun-18 22:43N 47°38' W 005°01'523.9
2017-Jun-18 22:30N 47°43' W 005°03'1223.4
2017-Jun-18 22:00N 47°54' W 005°07'1322.6
2017-Jun-18 21:27N 48°07' W 005°10'1022.9
2017-Jun-18 21:01N 48°17' W 005°08'1020.3
2017-Jun-18 20:30N 48°26' W 005°03'918.1
2017-Jun-18 20:01N 48°35' W 004°59'1122.7
2017-Jun-18 19:31N 48°46' W 004°53'1223.4
2017-Jun-18 19:01N 48°57' W 004°47'1523.6
2017-Jun-18 18:22N 49°11' W 004°42'1323.8
2017-Jun-18 17:49N 49°24' W 004°37'1123.8
2017-Jun-18 17:21N 49°35' W 004°32'1023.6
2017-Jun-18 16:55N 49°44' W 004°26'1023.6
2017-Jun-18 16:30N 49°54' W 004°22'1223.4
2017-Jun-18 16:00N 50°05' W 004°17'1223.1
2017-Jun-18 15:31N 50°16' W 004°12'612.2
2017-Jun-18 15:01N 50°22' W 004°09'0 0.3
2017-Jun-18 14:00N 50°22' W 004°09'0 0.0
2017-Jun-18 13:30N 50°22' W 004°09'0 0.0
2017-Jun-18 13:00N 50°22' W 004°09'0 0.0
2017-Jun-18 12:30N 50°22' W 004°09'1 2.8
2017-Jun-18 12:01N 50°20' W 004°09'816.4
2017-Jun-18 11:31N 50°12' W 004°10'1223.8
2017-Jun-18 11:01N 50°00' W 004°08'1223.7
2017-Jun-18 10:29N 49°48' W 004°05'1223.8
2017-Jun-18 10:00N 49°37' W 004°04'1223.8
2017-Jun-18 09:30N 49°25' W 004°02'1323.8
2017-Jun-18 08:57N 49°12' W 003°60'2323.5
2017-Jun-18 07:59N 48°49' W 003°57'5 1.4
2017-Jun-18 04:24N 48°44' W 003°57'616.1
2017-Jun-18 04:01N 48°50' W 004°02'1020.1
2017-Jun-18 03:31N 48°56' W 004°15'1020.2
2017-Jun-18 03:00N 49°02' W 004°27'1020.2
2017-Jun-18 02:31N 49°08' W 004°39'1020.0
2017-Jun-18 02:00N 49°15' W 004°50'1019.9
2017-Jun-18 01:30N 49°22' W 005°02'1020.0
2017-Jun-18 01:00N 49°28' W 005°13'3220.3
2017-Jun-17 23:24N 49°49' W 005°51'820.6
2017-Jun-17 23:01N 49°55' W 006°01'1019.8
2017-Jun-17 22:31N 50°05' W 006°02'1020.3
2017-Jun-17 22:01N 50°15' W 006°02'1019.3
2017-Jun-17 21:31N 50°24' W 006°08'1020.5
2017-Jun-17 21:01N 50°31' W 006°20'1020.6
2017-Jun-17 20:30N 50°38' W 006°31'1020.7
2017-Jun-17 20:00N 50°46' W 006°42'1020.5
2017-Jun-17 19:31N 50°53' W 006°54'1020.7
2017-Jun-17 19:00N 51°00' W 007°06'1020.6
2017-Jun-17 18:30N 51°08' W 007°17'1020.7
2017-Jun-17 18:00N 51°15' W 007°29'1020.7
2017-Jun-17 17:31N 51°23' W 007°40'1020.7
2017-Jun-17 17:01N 51°30' W 007°52'1020.6
2017-Jun-17 16:30N 51°37' W 008°03'1020.6
2017-Jun-17 16:01N 51°45' W 008°15'612.1
2017-Jun-17 15:31N 51°51' W 008°16'2 4.8
2017-Jun-17 15:00N 51°50' W 008°19'0 0.0
2017-Jun-17 14:30N 51°50' W 008°19'0 0.0
2017-Jun-17 13:30N 51°50' W 008°19'0 0.0
2017-Jun-17 13:00N 51°50' W 008°19'0 0.0
2017-Jun-17 12:30N 51°50' W 008°19'0 0.0
2017-Jun-17 12:00N 51°50' W 008°19'0 0.0
2017-Jun-17 11:30N 51°50' W 008°19'0 0.0
2017-Jun-17 11:01N 51°50' W 008°19'0 0.0
2017-Jun-17 10:30N 51°50' W 008°19'0 0.0
2017-Jun-17 10:01N 51°50' W 008°19'0 0.0
2017-Jun-17 09:30N 51°50' W 008°19'0 0.0
2017-Jun-17 09:00N 51°50' W 008°19'0 0.0
2017-Jun-17 08:30N 51°50' W 008°19'0 0.8
2017-Jun-17 08:00N 51°50' W 008°19'3 5.7
2017-Jun-17 07:30N 51°48' W 008°16'917.3
2017-Jun-17 07:00N 51°41' W 008°09'1019.6
2017-Jun-17 06:30N 51°34' W 007°58'1019.9
2017-Jun-17 06:00N 51°27' W 007°46'1020.0
2017-Jun-17 05:30N 51°20' W 007°35'1019.9
2017-Jun-17 05:00N 51°14' W 007°23'1020.5
2017-Jun-17 04:30N 51°07' W 007°11'1020.5
2017-Jun-17 04:00N 50°59' W 006°59'1020.3
2017-Jun-17 03:30N 50°52' W 006°48'1020.2
2017-Jun-17 03:00N 50°45' W 006°37'1020.1
2017-Jun-17 02:30N 50°38' W 006°26'1019.7
2017-Jun-17 02:00N 50°31' W 006°14'1020.1
2017-Jun-17 01:30N 50°24' W 006°03'918.8
2017-Jun-17 01:00N 50°16' W 005°55'1019.7
2017-Jun-17 00:30N 50°07' W 005°53'918.8
2017-Jun-17 00:00N 49°58' W 005°48'1020.1
2017-Jun-16 23:30N 49°51' W 005°37'1020.0
2017-Jun-16 23:00N 49°44' W 005°25'1020.1
2017-Jun-16 22:30N 49°37' W 005°14'1019.9
2017-Jun-16 22:00N 49°30' W 005°03'1019.7
2017-Jun-16 21:30N 49°23' W 004°52'1019.7
2017-Jun-16 21:00N 49°16' W 004°42'1019.7
2017-Jun-16 20:30N 49°09' W 004°31'1019.6
2017-Jun-16 19:59N 49°01' W 004°20'1319.0
2017-Jun-16 19:18N 48°52' W 004°06'4 0.8
2017-Jun-16 13:44N 48°51' W 004°00'3 7.4
2017-Jun-16 13:22N 48°49' W 003°57'3 9.3
2017-Jun-16 13:00N 48°46' W 003°57'2 2.2
2017-Jun-16 11:56N 48°43' W 003°58'0 0.0
2017-Jun-16 11:30N 48°43' W 003°58'0 0.0
2017-Jun-16 11:00N 48°43' W 003°58'0 0.0
2017-Jun-16 10:29N 48°43' W 003°58'1 0.2
2017-Jun-16 05:33N 48°44' W 003°57'212.1
2017-Jun-16 05:25N 48°46' W 003°57'614.4
2017-Jun-16 05:00N 48°52' W 003°59'814.6
2017-Jun-16 04:28N 48°59' W 004°01'714.8
2017-Jun-16 04:00N 49°06' W 004°02'914.8
2017-Jun-16 03:24N 49°15' W 004°03'5015.3
2017-Jun-16 00:10N 50°05' W 004°06'316.0
2017-Jun-15 23:58N 50°08' W 004°07'4 7.3
2017-Jun-15 23:28N 50°11' W 004°08'1 1.8
2017-Jun-15 23:00N 50°12' W 004°08'1 1.8
2017-Jun-15 22:30N 50°13' W 004°09'1 1.8
2017-Jun-15 22:00N 50°14' W 004°10'1 1.8
2017-Jun-15 21:31N 50°15' W 004°10'1 1.7
2017-Jun-15 21:01N 50°15' W 004°11'1 1.3
2017-Jun-15 20:30N 50°16' W 004°11'4 8.9
2017-Jun-15 20:00N 50°20' W 004°10'2 3.2
2017-Jun-15 19:31N 50°22' W 004°09'0 0.0
2017-Jun-15 19:01N 50°22' W 004°09'0 0.0
2017-Jun-15 18:31N 50°22' W 004°09'0 0.0
2017-Jun-15 18:00N 50°22' W 004°09'0 0.0
2017-Jun-15 17:30N 50°22' W 004°09'0 0.0
2017-Jun-15 17:01N 50°22' W 004°09'0 0.0
2017-Jun-15 16:30N 50°22' W 004°09'0 0.0
2017-Jun-15 16:00N 50°22' W 004°09'0 0.0
2017-Jun-15 15:30N 50°22' W 004°09'0 0.3
2017-Jun-15 15:01N 50°22' W 004°09'1515.2
2017-Jun-15 14:01N 50°07' W 004°15'1121.0
2017-Jun-15 13:30N 49°57' W 004°19'2320.6
2017-Jun-15 12:24N 49°35' W 004°29'2320.4
2017-Jun-15 11:17N 49°13' W 004°36'618.6
2017-Jun-15 10:58N 49°07' W 004°38'1122.8
2017-Jun-15 10:28N 48°56' W 004°42'1123.0
2017-Jun-15 10:00N 48°45' W 004°46'1223.2
2017-Jun-15 09:31N 48°34' W 004°50'816.6
2017-Jun-15 09:00N 48°26' W 004°50'714.2
2017-Jun-15 08:31N 48°19' W 004°47'1019.5
2017-Jun-15 08:01N 48°09' W 004°46'817.0
2017-Jun-15 07:31N 48°01' W 004°45'1019.5
2017-Jun-15 07:00N 47°51' W 004°42'1122.9
2017-Jun-15 06:30N 47°40' W 004°39'1223.0
2017-Jun-15 05:59N 47°28' W 004°36'1122.9
2017-Jun-15 05:31N 47°17' W 004°34'1223.0
2017-Jun-15 05:00N 47°06' W 004°32'1123.0
2017-Jun-15 04:30N 46°55' W 004°29'1122.9
2017-Jun-15 04:01N 46°43' W 004°27'1223.1
2017-Jun-15 03:30N 46°32' W 004°26'1122.9
2017-Jun-15 03:01N 46°21' W 004°22'1223.1
2017-Jun-15 02:30N 46°09' W 004°19'1122.5
2017-Jun-15 02:00N 45°58' W 004°17'1224.3
2017-Jun-15 01:30N 45°46' W 004°14'1021.2
2017-Jun-15 01:01N 45°36' W 004°12'1223.0
2017-Jun-15 00:30N 45°24' W 004°10'1123.1
2017-Jun-15 00:01N 45°13' W 004°07'1523.4
2017-Jun-14 23:21N 44°58' W 004°04'142 8.1
2017-Jun-14 05:47N 47°15' W 004°55'2123.2
2017-Jun-14 04:54N 47°35' W 005°00'2222.7
2017-Jun-14 03:56N 47°56' W 005°11'921.2
2017-Jun-14 03:30N 48°05' W 005°11'1122.0
2017-Jun-14 03:00N 48°16' W 005°08'1020.2
2017-Jun-14 02:30N 48°25' W 005°03'713.7
2017-Jun-14 02:00N 48°30' W 004°56'1224.0
2017-Jun-14 01:30N 48°39' W 004°44'1325.1
2017-Jun-14 01:00N 48°49' W 004°31'1425.1
2017-Jun-14 00:27N 48°59' W 004°17'1224.8
2017-Jun-13 23:59N 49°07' W 004°05'1224.4
2017-Jun-13 23:30N 49°15' W 003°52'1223.8
2017-Jun-13 23:00N 49°24' W 003°40'1223.1
2017-Jun-13 22:31N 49°33' W 003°28'1122.5
2017-Jun-13 22:01N 49°42' W 003°18'1122.0
2017-Jun-13 21:31N 49°50' W 003°06'1121.6
2017-Jun-13 21:01N 49°57' W 002°54'1121.8
2017-Jun-13 20:31N 50°00' W 002°38'1122.1
2017-Jun-13 20:00N 50°07' W 002°23'1122.5
2017-Jun-13 19:30N 50°12' W 002°08'1223.1
2017-Jun-13 19:01N 50°18' W 001°52'1223.6
2017-Jun-13 18:31N 50°25' W 001°37'1223.9
2017-Jun-13 18:01N 50°31' W 001°22'1223.4
2017-Jun-13 17:30N 50°37' W 001°06'815.1
2017-Jun-13 17:01N 50°45' W 001°05'4 7.5
2017-Jun-13 16:30N 50°49' W 001°06'0 0.0
2017-Jun-13 16:00N 50°49' W 001°06'0 0.0
2017-Jun-13 15:30N 50°49' W 001°06'0 0.0
2017-Jun-13 15:00N 50°49' W 001°06'0 0.0
2017-Jun-13 14:00N 50°49' W 001°06'0 0.0
2017-Jun-13 13:30N 50°49' W 001°06'0 0.1
2017-Jun-13 13:00N 50°49' W 001°06'4 7.7
2017-Jun-13 12:30N 50°45' W 001°05'611.3
2017-Jun-13 12:00N 50°39' W 001°05'1121.6
2017-Jun-13 11:31N 50°30' W 001°14'1224.4
2017-Jun-13 11:01N 50°23' W 001°30'1224.9
2017-Jun-13 10:30N 50°16' W 001°46'1224.4
2017-Jun-13 10:00N 50°07' W 001°59'1325.4
2017-Jun-13 09:30N 49°60' W 002°15'1525.0
2017-Jun-13 08:55N 49°52' W 002°35'1424.5
2017-Jun-13 08:20N 49°46' W 002°54'824.6
2017-Jun-13 08:01N 49°42' W 003°05'1324.4
2017-Jun-13 07:30N 49°33' W 003°18'1224.4
2017-Jun-13 07:01N 49°24' W 003°31'2724.6
2017-Jun-13 05:54N 49°06' W 004°02'  
Track history (hours):
 
Tides and Currents Weather Stations Pressure Air Temp Water Temp Dewpoint Dewpoint Depression Visibility Wind Speed Wind Dir Waves Ship Positions

Pont Aven

Last reported at 2017-Jun-23 05:39 UTC. Time now 2017-Jun-23 18:55 UTC.
Position N 48°43' W 003°58'.

Length 185 m; beam 31 m.

Type: Passenger vessel. MMSI: 228183600.

Date/timePositionNaut miles runAvg speedWind from/ knotsBaromVisibWave heightAir tempDewpointWater temp
2017-Jun-23 05:39N 48°43' W 003°58'1 7.4
2017-Jun-23 05:30N 48°44' W 003°57'1415.8
2017-Jun-23 04:36N 48°58' W 003°60'217.2
2017-Jun-23 04:31N 48°60' W 003°60'4517.4
2017-Jun-23 01:56N 49°44' W 004°12'816.9
2017-Jun-23 01:26N 49°52' W 004°14'716.9
2017-Jun-23 01:00N 49°60' W 004°16'817.0
2017-Jun-23 00:30N 50°08' W 004°17'917.1
2017-Jun-23 00:00N 50°17' W 004°17'1 1.3
2017-Jun-22 23:30N 50°17' W 004°17'0 0.8
2017-Jun-22 23:00N 50°17' W 004°18'0 0.5
2017-Jun-22 22:30N 50°17' W 004°18'0 0.4
2017-Jun-22 22:00N 50°16' W 004°18'0 0.5
2017-Jun-22 21:30N 50°16' W 004°18'0 0.6
2017-Jun-22 21:00N 50°16' W 004°19'6 7.1
2017-Jun-22 20:09N 50°19' W 004°10'110.1
2017-Jun-22 20:01N 50°20' W 004°09'1 2.9
2017-Jun-22 19:30N 50°22' W 004°09'0 0.0
2017-Jun-22 19:01N 50°22' W 004°09'0 0.0
2017-Jun-22 18:31N 50°22' W 004°09'0 0.0
2017-Jun-22 18:01N 50°22' W 004°09'0 0.0
2017-Jun-22 17:31N 50°22' W 004°09'0 0.0
2017-Jun-22 17:01N 50°22' W 004°09'0 0.0
2017-Jun-22 16:31N 50°22' W 004°09'0 0.0
2017-Jun-22 16:00N 50°22' W 004°09'0 0.0
2017-Jun-22 15:30N 50°22' W 004°09'0 0.4
2017-Jun-22 15:00N 50°22' W 004°09'1313.4
2017-Jun-22 14:01N 50°09' W 004°15'4722.1
2017-Jun-22 11:53N 49°23' W 004°31'1422.2
2017-Jun-22 11:14N 49°10' W 004°41'922.2
2017-Jun-22 10:50N 49°01' W 004°45'922.1
2017-Jun-22 10:25N 48°53' W 004°49'922.3
2017-Jun-22 09:59N 48°44' W 004°53'1122.4
2017-Jun-22 09:31N 48°33' W 004°57'917.4
2017-Jun-22 09:01N 48°26' W 005°03'1121.8
2017-Jun-22 08:30N 48°15' W 005°08'1122.6
2017-Jun-22 08:01N 48°04' W 005°10'1122.3
2017-Jun-22 07:30N 47°53' W 005°06'1122.7
2017-Jun-22 07:01N 47°42' W 005°03'1223.2
2017-Jun-22 06:30N 47°31' W 004°59'1122.9
2017-Jun-22 06:01N 47°20' W 004°55'1223.1
2017-Jun-22 05:31N 47°08' W 004°52'1322.6
2017-Jun-22 04:57N 46°56' W 004°50'1022.3
2017-Jun-22 04:30N 46°46' W 004°46'1122.7
2017-Jun-22 04:00N 46°35' W 004°42'1223.1
2017-Jun-22 03:29N 46°23' W 004°38'1122.7
2017-Jun-22 02:59N 46°12' W 004°35'1123.2
2017-Jun-22 02:30N 46°01' W 004°32'1223.1
2017-Jun-22 02:01N 45°50' W 004°28'1223.5
2017-Jun-22 01:30N 45°39' W 004°25'1223.8
2017-Jun-22 01:00N 45°27' W 004°21'1223.6
2017-Jun-22 00:31N 45°15' W 004°18'1223.7
2017-Jun-22 00:01N 45°04' W 004°14'1223.7
2017-Jun-21 23:30N 44°52' W 004°11'1223.6
2017-Jun-21 23:01N 44°41' W 004°08'1223.3
2017-Jun-21 22:31N 44°29' W 004°04'1223.0
2017-Jun-21 22:00N 44°18' W 004°01'1223.2
2017-Jun-21 21:30N 44°06' W 003°58'16 2.0
2017-Jun-21 13:22N 44°22' W 004°01'823.2
2017-Jun-21 13:00N 44°30' W 004°04'1323.4
2017-Jun-21 12:26N 44°43' W 004°08'1023.5
2017-Jun-21 12:00N 44°53' W 004°11'1223.2
2017-Jun-21 11:31N 45°05' W 004°14'1223.3
2017-Jun-21 11:00N 45°16' W 004°17'1223.3
2017-Jun-21 10:29N 45°28' W 004°21'2723.5
2017-Jun-21 09:20N 45°55' W 004°28'823.6
2017-Jun-21 09:00N 46°02' W 004°30'2523.9
2017-Jun-21 07:57N 46°27' W 004°37'1123.7
2017-Jun-21 07:30N 46°37' W 004°41'1523.3
2017-Jun-21 06:52N 46°52' W 004°46'823.7
2017-Jun-21 06:30N 47°00' W 004°48'1223.6
2017-Jun-21 06:01N 47°12' W 004°51'1224.1
2017-Jun-21 05:30N 47°23' W 004°54'1224.0
2017-Jun-21 05:00N 47°35' W 004°59'1224.2
2017-Jun-21 04:31N 47°47' W 005°04'1224.6
2017-Jun-21 04:01N 47°58' W 005°09'1224.2
2017-Jun-21 03:30N 48°11' W 005°09'1223.9
2017-Jun-21 03:01N 48°22' W 005°06'917.3
2017-Jun-21 02:31N 48°29' W 004°58'1122.9
2017-Jun-21 02:01N 48°39' W 004°48'1121.3
2017-Jun-21 01:31N 48°45' W 004°36'1122.0
2017-Jun-21 01:00N 48°54' W 004°25'1122.3
2017-Jun-21 00:31N 49°02' W 004°14'1122.8
2017-Jun-21 00:00N 49°10' W 004°02'1823.5
2017-Jun-20 23:14N 49°23' W 003°42'524.1
2017-Jun-20 23:00N 49°27' W 003°36'1224.5
2017-Jun-20 22:31N 49°35' W 003°22'1224.6
2017-Jun-20 22:01N 49°45' W 003°10'1224.3
2017-Jun-20 21:30N 49°54' W 002°58'1224.1
2017-Jun-20 21:01N 50°00' W 002°42'1325.0
2017-Jun-20 20:31N 50°05' W 002°24'1224.5
2017-Jun-20 20:01N 50°11' W 002°07'1223.9
2017-Jun-20 19:31N 50°17' W 001°51'1823.0
2017-Jun-20 18:44N 50°26' W 001°27'522.3
2017-Jun-20 18:30N 50°28' W 001°20'1121.7
2017-Jun-20 18:00N 50°35' W 001°06'918.3
2017-Jun-20 17:30N 50°43' W 000°59'714.4
2017-Jun-20 17:00N 50°48' W 001°07'1 2.1
2017-Jun-20 16:30N 50°49' W 001°06'0 0.0
2017-Jun-20 16:00N 50°49' W 001°06'0 0.0
2017-Jun-20 15:30N 50°49' W 001°06'0 0.0
2017-Jun-20 15:00N 50°49' W 001°06'0 0.0
2017-Jun-20 14:30N 50°49' W 001°06'1 0.9
2017-Jun-20 13:30N 50°48' W 001°07'611.9
2017-Jun-20 13:00N 50°43' W 001°01'815.6
2017-Jun-20 12:30N 50°36' W 001°03'1021.1
2017-Jun-20 12:00N 50°29' W 001°16'1121.2
2017-Jun-20 11:30N 50°22' W 001°28'1121.1
2017-Jun-20 11:00N 50°14' W 001°41'1020.6
2017-Jun-20 10:30N 50°08' W 001°53'1020.5
2017-Jun-20 10:00N 50°03' W 002°07'1120.4
2017-Jun-20 09:28N 49°57' W 002°22'1321.0
2017-Jun-20 08:51N 49°53' W 002°40'821.5
2017-Jun-20 08:30N 49°50' W 002°52'1121.6
2017-Jun-20 07:59N 49°43' W 003°05'1121.9
2017-Jun-20 07:30N 49°35' W 003°15'1122.0
2017-Jun-20 07:00N 49°28' W 003°28'3722.1
2017-Jun-20 05:20N 49°02' W 004°09'822.3
2017-Jun-20 04:59N 48°57' W 004°18'1122.2
2017-Jun-20 04:30N 48°50' W 004°30'1122.2
2017-Jun-20 04:00N 48°42' W 004°42'1122.2
2017-Jun-20 03:30N 48°34' W 004°53'1019.3
2017-Jun-20 03:00N 48°26' W 005°02'1019.9
2017-Jun-20 02:30N 48°17' W 005°08'1222.8
2017-Jun-20 02:00N 48°06' W 005°10'1122.5
2017-Jun-20 01:30N 47°55' W 005°09'1122.8
2017-Jun-20 01:00N 47°43' W 005°06'1223.3
2017-Jun-20 00:30N 47°32' W 005°02'2023.1
2017-Jun-19 23:40N 47°13' W 004°56'523.0
2017-Jun-19 23:26N 47°08' W 004°54'1223.3
2017-Jun-19 22:54N 46°56' W 004°49'922.9
2017-Jun-19 22:31N 46°47' W 004°46'1223.1
2017-Jun-19 22:00N 46°36' W 004°43'1223.1
2017-Jun-19 21:31N 46°25' W 004°39'1223.8
2017-Jun-19 21:01N 46°13' W 004°35'1223.3
2017-Jun-19 20:31N 46°01' W 004°32'1223.3
2017-Jun-19 20:01N 45°50' W 004°29'12010.5
2017-Jun-19 08:31N 43°53' W 003°52'022.9
2017-Jun-19 08:30N 43°53' W 003°52'1523.4
2017-Jun-19 07:52N 44°08' W 003°56'923.5
2017-Jun-19 07:30N 44°16' W 003°59'1123.2
2017-Jun-19 07:00N 44°27' W 004°02'1323.2
2017-Jun-19 06:27N 44°40' W 004°06'10923.3
2017-Jun-19 01:46N 46°26' W 004°42'723.4
2017-Jun-19 01:28N 46°33' W 004°43'1424.0
2017-Jun-19 00:53N 46°47' W 004°45'924.3
2017-Jun-19 00:31N 46°56' W 004°47'1424.0
2017-Jun-18 23:56N 47°10' W 004°51'2924.0
2017-Jun-18 22:43N 47°38' W 005°01'523.9
2017-Jun-18 22:30N 47°43' W 005°03'1223.4
2017-Jun-18 22:00N 47°54' W 005°07'1322.6
2017-Jun-18 21:27N 48°07' W 005°10'1022.9
2017-Jun-18 21:01N 48°17' W 005°08'1020.3
2017-Jun-18 20:30N 48°26' W 005°03'918.1
2017-Jun-18 20:01N 48°35' W 004°59'1122.7
2017-Jun-18 19:31N 48°46' W 004°53'1223.4
2017-Jun-18 19:01N 48°57' W 004°47'1523.6
2017-Jun-18 18:22N 49°11' W 004°42'1323.8
2017-Jun-18 17:49N 49°24' W 004°37'1123.8
2017-Jun-18 17:21N 49°35' W 004°32'1023.6
2017-Jun-18 16:55N 49°44' W 004°26'1023.6
2017-Jun-18 16:30N 49°54' W 004°22'1223.4
2017-Jun-18 16:00N 50°05' W 004°17'1223.1
2017-Jun-18 15:31N 50°16' W 004°12'612.2
2017-Jun-18 15:01N 50°22' W 004°09'0 0.3
2017-Jun-18 14:00N 50°22' W 004°09'0 0.0
2017-Jun-18 13:30N 50°22' W 004°09'0 0.0
2017-Jun-18 13:00N 50°22' W 004°09'0 0.0
2017-Jun-18 12:30N 50°22' W 004°09'1 2.8
2017-Jun-18 12:01N 50°20' W 004°09'816.4
2017-Jun-18 11:31N 50°12' W 004°10'1223.8
2017-Jun-18 11:01N 50°00' W 004°08'1223.7
2017-Jun-18 10:29N 49°48' W 004°05'1223.8
2017-Jun-18 10:00N 49°37' W 004°04'1223.8
2017-Jun-18 09:30N 49°25' W 004°02'1323.8
2017-Jun-18 08:57N 49°12' W 003°60'2323.5
2017-Jun-18 07:59N 48°49' W 003°57'5 1.4
2017-Jun-18 04:24N 48°44' W 003°57'616.1
2017-Jun-18 04:01N 48°50' W 004°02'1020.1
2017-Jun-18 03:31N 48°56' W 004°15'1020.2
2017-Jun-18 03:00N 49°02' W 004°27'1020.2
2017-Jun-18 02:31N 49°08' W 004°39'1020.0
2017-Jun-18 02:00N 49°15' W 004°50'1019.9
2017-Jun-18 01:30N 49°22' W 005°02'1020.0
2017-Jun-18 01:00N 49°28' W 005°13'3220.3
2017-Jun-17 23:24N 49°49' W 005°51'820.6
2017-Jun-17 23:01N 49°55' W 006°01'1019.8
2017-Jun-17 22:31N 50°05' W 006°02'1020.3
2017-Jun-17 22:01N 50°15' W 006°02'1019.3
2017-Jun-17 21:31N 50°24' W 006°08'1020.5
2017-Jun-17 21:01N 50°31' W 006°20'1020.6
2017-Jun-17 20:30N 50°38' W 006°31'1020.7
2017-Jun-17 20:00N 50°46' W 006°42'1020.5
2017-Jun-17 19:31N 50°53' W 006°54'1020.7
2017-Jun-17 19:00N 51°00' W 007°06'1020.6
2017-Jun-17 18:30N 51°08' W 007°17'1020.7
2017-Jun-17 18:00N 51°15' W 007°29'1020.7
2017-Jun-17 17:31N 51°23' W 007°40'1020.7
2017-Jun-17 17:01N 51°30' W 007°52'1020.6
2017-Jun-17 16:30N 51°37' W 008°03'1020.6
2017-Jun-17 16:01N 51°45' W 008°15'612.1
2017-Jun-17 15:31N 51°51' W 008°16'2 4.8
2017-Jun-17 15:00N 51°50' W 008°19'0 0.0
2017-Jun-17 14:30N 51°50' W 008°19'0 0.0
2017-Jun-17 13:30N 51°50' W 008°19'0 0.0
2017-Jun-17 13:00N 51°50' W 008°19'0 0.0
2017-Jun-17 12:30N 51°50' W 008°19'0 0.0
2017-Jun-17 12:00N 51°50' W 008°19'0 0.0
2017-Jun-17 11:30N 51°50' W 008°19'0 0.0
2017-Jun-17 11:01N 51°50' W 008°19'0 0.0
2017-Jun-17 10:30N 51°50' W 008°19'0 0.0
2017-Jun-17 10:01N 51°50' W 008°19'0 0.0
2017-Jun-17 09:30N 51°50' W 008°19'0 0.0
2017-Jun-17 09:00N 51°50' W 008°19'0 0.0
2017-Jun-17 08:30N 51°50' W 008°19'0 0.8
2017-Jun-17 08:00N 51°50' W 008°19'3 5.7
2017-Jun-17 07:30N 51°48' W 008°16'917.3
2017-Jun-17 07:00N 51°41' W 008°09'1019.6
2017-Jun-17 06:30N 51°34' W 007°58'1019.9
2017-Jun-17 06:00N 51°27' W 007°46'1020.0
2017-Jun-17 05:30N 51°20' W 007°35'1019.9
2017-Jun-17 05:00N 51°14' W 007°23'1020.5
2017-Jun-17 04:30N 51°07' W 007°11'1020.5
2017-Jun-17 04:00N 50°59' W 006°59'1020.3
2017-Jun-17 03:30N 50°52' W 006°48'1020.2
2017-Jun-17 03:00N 50°45' W 006°37'1020.1
2017-Jun-17 02:30N 50°38' W 006°26'1019.7
2017-Jun-17 02:00N 50°31' W 006°14'1020.1
2017-Jun-17 01:30N 50°24' W 006°03'918.8
2017-Jun-17 01:00N 50°16' W 005°55'1019.7
2017-Jun-17 00:30N 50°07' W 005°53'918.8
2017-Jun-17 00:00N 49°58' W 005°48'1020.1
2017-Jun-16 23:30N 49°51' W 005°37'1020.0
2017-Jun-16 23:00N 49°44' W 005°25'1020.1
2017-Jun-16 22:30N 49°37' W 005°14'1019.9
2017-Jun-16 22:00N 49°30' W 005°03'1019.7
2017-Jun-16 21:30N 49°23' W 004°52'1019.7
2017-Jun-16 21:00N 49°16' W 004°42'1019.7
2017-Jun-16 20:30N 49°09' W 004°31'1019.6
2017-Jun-16 19:59N 49°01' W 004°20'1319.0
2017-Jun-16 19:18N 48°52' W 004°06'4 0.8
2017-Jun-16 13:44N 48°51' W 004°00'3 7.4
2017-Jun-16 13:22N 48°49' W 003°57'3 9.3
2017-Jun-16 13:00N 48°46' W 003°57'2 2.2
2017-Jun-16 11:56N 48°43' W 003°58'0 0.0
2017-Jun-16 11:30N 48°43' W 003°58'0 0.0
2017-Jun-16 11:00N 48°43' W 003°58'0 0.0
2017-Jun-16 10:29N 48°43' W 003°58'1 0.2
2017-Jun-16 05:33N 48°44' W 003°57'212.1
2017-Jun-16 05:25N 48°46' W 003°57'614.4
2017-Jun-16 05:00N 48°52' W 003°59'814.6
2017-Jun-16 04:28N 48°59' W 004°01'714.8
2017-Jun-16 04:00N 49°06' W 004°02'914.8
2017-Jun-16 03:24N 49°15' W 004°03'5015.3
2017-Jun-16 00:10N 50°05' W 004°06'316.0
2017-Jun-15 23:58N 50°08' W 004°07'4 7.3
2017-Jun-15 23:28N 50°11' W 004°08'1 1.8
2017-Jun-15 23:00N 50°12' W 004°08'1 1.8
2017-Jun-15 22:30N 50°13' W 004°09'1 1.8
2017-Jun-15 22:00N 50°14' W 004°10'1 1.8
2017-Jun-15 21:31N 50°15' W 004°10'1 1.7
2017-Jun-15 21:01N 50°15' W 004°11'1 1.3
2017-Jun-15 20:30N 50°16' W 004°11'4 8.9
2017-Jun-15 20:00N 50°20' W 004°10'2 3.2
2017-Jun-15 19:31N 50°22' W 004°09'0 0.0
2017-Jun-15 19:01N 50°22' W 004°09'0 0.0
2017-Jun-15 18:31N 50°22' W 004°09'0 0.0
2017-Jun-15 18:00N 50°22' W 004°09'0 0.0
2017-Jun-15 17:30N 50°22' W 004°09'0 0.0
2017-Jun-15 17:01N 50°22' W 004°09'0 0.0
2017-Jun-15 16:30N 50°22' W 004°09'0 0.0
2017-Jun-15 16:00N 50°22' W 004°09'0 0.0
2017-Jun-15 15:30N 50°22' W 004°09'0 0.3
2017-Jun-15 15:01N 50°22' W 004°09'1515.2
2017-Jun-15 14:01N 50°07' W 004°15'1121.0
2017-Jun-15 13:30N 49°57' W 004°19'2320.6
2017-Jun-15 12:24N 49°35' W 004°29'2320.4
2017-Jun-15 11:17N 49°13' W 004°36'618.6
2017-Jun-15 10:58N 49°07' W 004°38'1122.8
2017-Jun-15 10:28N 48°56' W 004°42'1123.0
2017-Jun-15 10:00N 48°45' W 004°46'1223.2
2017-Jun-15 09:31N 48°34' W 004°50'816.6
2017-Jun-15 09:00N 48°26' W 004°50'714.2
2017-Jun-15 08:31N 48°19' W 004°47'1019.5
2017-Jun-15 08:01N 48°09' W 004°46'817.0
2017-Jun-15 07:31N 48°01' W 004°45'1019.5
2017-Jun-15 07:00N 47°51' W 004°42'1122.9
2017-Jun-15 06:30N 47°40' W 004°39'1223.0
2017-Jun-15 05:59N 47°28' W 004°36'1122.9
2017-Jun-15 05:31N 47°17' W 004°34'1223.0
2017-Jun-15 05:00N 47°06' W 004°32'1123.0
2017-Jun-15 04:30N 46°55' W 004°29'1122.9
2017-Jun-15 04:01N 46°43' W 004°27'1223.1
2017-Jun-15 03:30N 46°32' W 004°26'1122.9
2017-Jun-15 03:01N 46°21' W 004°22'1223.1
2017-Jun-15 02:30N 46°09' W 004°19'1122.5
2017-Jun-15 02:00N 45°58' W 004°17'1224.3
2017-Jun-15 01:30N 45°46' W 004°14'1021.2
2017-Jun-15 01:01N 45°36' W 004°12'1223.0
2017-Jun-15 00:30N 45°24' W 004°10'1123.1
2017-Jun-15 00:01N 45°13' W 004°07'1523.4
2017-Jun-14 23:21N 44°58' W 004°04'142 8.1
2017-Jun-14 05:47N 47°15' W 004°55'2123.2
2017-Jun-14 04:54N 47°35' W 005°00'2222.7
2017-Jun-14 03:56N 47°56' W 005°11'921.2
2017-Jun-14 03:30N 48°05' W 005°11'1122.0
2017-Jun-14 03:00N 48°16' W 005°08'1020.2
2017-Jun-14 02:30N 48°25' W 005°03'713.7
2017-Jun-14 02:00N 48°30' W 004°56'1224.0
2017-Jun-14 01:30N 48°39' W 004°44'1325.1
2017-Jun-14 01:00N 48°49' W 004°31'1425.1
2017-Jun-14 00:27N 48°59' W 004°17'1224.8
2017-Jun-13 23:59N 49°07' W 004°05'1224.4
2017-Jun-13 23:30N 49°15' W 003°52'1223.8
2017-Jun-13 23:00N 49°24' W 003°40'1223.1
2017-Jun-13 22:31N 49°33' W 003°28'1122.5
2017-Jun-13 22:01N 49°42' W 003°18'1122.0
2017-Jun-13 21:31N 49°50' W 003°06'1121.6
2017-Jun-13 21:01N 49°57' W 002°54'1121.8
2017-Jun-13 20:31N 50°00' W 002°38'1122.1
2017-Jun-13 20:00N 50°07' W 002°23'1122.5
2017-Jun-13 19:30N 50°12' W 002°08'1223.1
2017-Jun-13 19:01N 50°18' W 001°52'1223.6
2017-Jun-13 18:31N 50°25' W 001°37'1223.9
2017-Jun-13 18:01N 50°31' W 001°22'1223.4
2017-Jun-13 17:30N 50°37' W 001°06'815.1
2017-Jun-13 17:01N 50°45' W 001°05'4 7.5
2017-Jun-13 16:30N 50°49' W 001°06'0 0.0
2017-Jun-13 16:00N 50°49' W 001°06'0 0.0
2017-Jun-13 15:30N 50°49' W 001°06'0 0.0
2017-Jun-13 15:00N 50°49' W 001°06'0 0.0
2017-Jun-13 14:00N 50°49' W 001°06'0 0.0
2017-Jun-13 13:30N 50°49' W 001°06'0 0.1
2017-Jun-13 13:00N 50°49' W 001°06'4 7.7
2017-Jun-13 12:30N 50°45' W 001°05'611.3
2017-Jun-13 12:00N 50°39' W 001°05'1121.6
2017-Jun-13 11:31N 50°30' W 001°14'1224.4
2017-Jun-13 11:01N 50°23' W 001°30'1224.9
2017-Jun-13 10:30N 50°16' W 001°46'1224.4
2017-Jun-13 10:00N 50°07' W 001°59'1325.4
2017-Jun-13 09:30N 49°60' W 002°15'1525.0
2017-Jun-13 08:55N 49°52' W 002°35'1424.5
2017-Jun-13 08:20N 49°46' W 002°54'824.6
2017-Jun-13 08:01N 49°42' W 003°05'1324.4
2017-Jun-13 07:30N 49°33' W 003°18'1224.4
2017-Jun-13 07:01N 49°24' W 003°31'2724.6
2017-Jun-13 05:54N 49°06' W 004°02'  

Dump ship's entire track history